Wetterdaten: Woche 22.05.17 - 28.05.17 (KW21)
Datum Zeit Temperatur Luftfeuchte Luftdruck Niederschlag Windrichtung Sonnenschein Solar Wind
22.05.2017 00:00 11,7 C 79 % 1019,1 hPa 0,0 l/m O-NO 0,00 h 0 W/m 3,2 km/h (1 Bft)
22.05.2017 01:00 10,5 C 85 % 1018,5 hPa 0,0 l/m O-NO 0,00 h 0 W/m 2,7 km/h (1 Bft)
22.05.2017 02:00 10,5 C 86 % 1017,9 hPa 0,0 l/m NO 0,00 h 0 W/m 4,3 km/h (1 Bft)
22.05.2017 03:00 9,5 C 89 % 1017,4 hPa 0,0 l/m N 0,00 h 0 W/m 1,1 km/h (0 Bft)
22.05.2017 04:00 8,6 C 91 % 1017,0 hPa 0,0 l/m N 0,00 h 0 W/m 0,0 km/h (0 Bft)
22.05.2017 05:00 7,9 C 94 % 1017,0 hPa 0,0 l/m N 0,00 h 7 W/m 0,0 km/h (0 Bft)
22.05.2017 06:00 8,3 C 95 % 1017,0 hPa 0,0 l/m N 0,75 h 75 W/m 0,0 km/h (0 Bft)
22.05.2017 07:00 10,3 C 89 % 1017,0 hPa 0,0 l/m N 1,00 h 257 W/m 3,1 km/h (1 Bft)
22.05.2017 08:00 12,3 C 83 % 1017,0 hPa 0,0 l/m N 1,00 h 433 W/m 0,9 km/h (0 Bft)
22.05.2017 09:00 14,2 C 77 % 1016,9 hPa 0,0 l/m NO 0,92 h 473 W/m 3,7 km/h (1 Bft)
22.05.2017 10:00 16,3 C 72 % 1016,7 hPa 0,0 l/m S-SO 0,83 h 609 W/m 6,0 km/h (2 Bft)
22.05.2017 11:00 18,3 C 66 % 1016,5 hPa 0,0 l/m S 1,00 h 835 W/m 10,3 km/h (2 Bft)
22.05.2017 12:00 20,1 C 60 % 1016,1 hPa 0,0 l/m W-SW 1,00 h 957 W/m 14,8 km/h (3 Bft)
22.05.2017 13:00 21,5 C 53 % 1015,7 hPa 0,0 l/m W 1,00 h 966 W/m 11,3 km/h (2 Bft)
22.05.2017 14:00 22,3 C 46 % 1015,0 hPa 0,0 l/m SO 0,97 h 823 W/m 10,3 km/h (2 Bft)
22.05.2017 15:00 22,2 C 48 % 1014,7 hPa 0,0 l/m W-NW 0,67 h 654 W/m 9,9 km/h (2 Bft)
22.05.2017 16:00 23,1 C 44 % 1014,3 hPa 0,0 l/m W 0,92 h 620 W/m 10,2 km/h (2 Bft)
22.05.2017 17:00 23,4 C 44 % 1013,8 hPa 0,0 l/m S-SW 1,00 h 523 W/m 9,0 km/h (2 Bft)
22.05.2017 18:00 22,7 C 46 % 1013,5 hPa 0,0 l/m NW 0,92 h 340 W/m 6,7 km/h (2 Bft)
22.05.2017 19:00 22,1 C 48 % 1013,3 hPa 0,0 l/m NW 0,83 h 143 W/m 2,9 km/h (1 Bft)
22.05.2017 20:00 19,8 C 60 % 1013,3 hPa 0,0 l/m NW 0,17 h 27 W/m 1,1 km/h (0 Bft)
22.05.2017 21:00 16,9 C 71 % 1013,7 hPa 0,0 l/m N 0,00 h 0 W/m 0,0 km/h (0 Bft)
22.05.2017 22:00 15,5 C 75 % 1014,2 hPa 0,0 l/m N 0,00 h 0 W/m 0,3 km/h (0 Bft)
22.05.2017 23:00 14,5 C 80 % 1014,5 hPa 0,0 l/m NW 0,00 h 0 W/m 2,0 km/h (1 Bft)
23.05.2017 00:00 14,2 C 81 % 1014,6 hPa 0,0 l/m NW 0,00 h 0 W/m 4,5 km/h (1 Bft)
23.05.2017 01:00 13,3 C 84 % 1014,6 hPa 0,0 l/m N 0,00 h 0 W/m 0,9 km/h (0 Bft)
23.05.2017 02:00 12,1 C 88 % 1014,7 hPa 0,0 l/m N 0,00 h 0 W/m 0,0 km/h (0 Bft)
23.05.2017 03:00 11,2 C 92 % 1014,9 hPa 0,0 l/m N 0,00 h 0 W/m 0,0 km/h (0 Bft)
23.05.2017 04:00 10,2 C 94 % 1015,0 hPa 0,0 l/m N 0,00 h 0 W/m 0,0 km/h (0 Bft)
23.05.2017 05:00 9,7 C 95 % 1015,2 hPa 0,0 l/m N 0,08 h 13 W/m 0,0 km/h (0 Bft)
23.05.2017 06:00 9,9 C 96 % 1015,5 hPa 0,0 l/m N 0,25 h 68 W/m 0,0 km/h (0 Bft)
23.05.2017 07:00 11,7 C 93 % 1016,0 hPa 0,0 l/m N 0,25 h 143 W/m 0,1 km/h (0 Bft)
23.05.2017 08:00 14,8 C 85 % 1016,4 hPa 0,0 l/m NW 0,75 h 363 W/m 4,1 km/h (1 Bft)
23.05.2017 09:00 17,8 C 74 % 1016,6 hPa 0,0 l/m W-SW 0,50 h 359 W/m 5,5 km/h (1 Bft)
23.05.2017 10:00 20,2 C 67 % 1016,4 hPa 0,0 l/m W-SW 0,83 h 588 W/m 18,6 km/h (3 Bft)
23.05.2017 11:00 21,4 C 59 % 1016,4 hPa 0,0 l/m W-NW 0,17 h 329 W/m 14,9 km/h (3 Bft)
23.05.2017 12:00 22,8 C 53 % 1016,2 hPa 0,0 l/m W 1,00 h 960 W/m 18,2 km/h (3 Bft)
23.05.2017 13:00 23,7 C 50 % 1016,0 hPa 0,0 l/m W 0,75 h 813 W/m 18,9 km/h (3 Bft)
23.05.2017 14:00 23,6 C 53 % 1015,6 hPa 0,0 l/m W-SW 0,42 h 542 W/m 18,5 km/h (3 Bft)
23.05.2017 15:00 24,3 C 47 % 1015,5 hPa 0,0 l/m W 0,83 h 653 W/m 20,1 km/h (4 Bft)
23.05.2017 16:00 24,4 C 41 % 1015,4 hPa 0,0 l/m W-NW 0,75 h 553 W/m 18,9 km/h (3 Bft)
23.05.2017 17:00 24,4 C 39 % 1015,8 hPa 0,0 l/m NW 0,92 h 417 W/m 18,4 km/h (3 Bft)
23.05.2017 18:00 23,3 C 45 % 1015,8 hPa 0,0 l/m N-NW 0,50 h 210 W/m 13,3 km/h (3 Bft)
23.05.2017 19:00 22,0 C 51 % 1016,1 hPa 0,0 l/m NW 0,08 h 109 W/m 7,9 km/h (2 Bft)
23.05.2017 20:00 20,7 C 58 % 1016,5 hPa 0,0 l/m NW 0,08 h 24 W/m 3,6 km/h (1 Bft)
23.05.2017 21:00 18,9 C 67 % 1017,0 hPa 0,0 l/m N 0,00 h 5 W/m 1,6 km/h (1 Bft)
23.05.2017 22:00 18,0 C 68 % 1017,7 hPa 0,0 l/m NW 0,00 h 0 W/m 6,1 km/h (2 Bft)
23.05.2017 23:00 17,7 C 70 % 1017,9 hPa 0,0 l/m NW 0,00 h 0 W/m 8,2 km/h (2 Bft)
24.05.2017 00:00 17,6 C 71 % 1018,1 hPa 0,0 l/m W-NW 0,00 h 0 W/m 10,1 km/h (2 Bft)
24.05.2017 01:00 16,9 C 72 % 1018,2 hPa 0,0 l/m W-NW 0,00 h 0 W/m 9,8 km/h (2 Bft)
24.05.2017 02:00 16,1 C 77 % 1018,2 hPa 0,0 l/m NW 0,00 h 0 W/m 8,7 km/h (2 Bft)
24.05.2017 03:00 15,3 C 79 % 1018,2 hPa 0,0 l/m N-NW 0,00 h 0 W/m 9,8 km/h (2 Bft)
24.05.2017 04:00 14,5 C 81 % 1018,5 hPa 0,0 l/m N-NW 0,00 h 0 W/m 13,0 km/h (3 Bft)
24.05.2017 05:00 13,7 C 81 % 1019,0 hPa 0,0 l/m N-NW 0,08 h 12 W/m 10,1 km/h (2 Bft)
24.05.2017 06:00 13,5 C 77 % 1019,4 hPa 0,0 l/m NW 0,00 h 45 W/m 10,6 km/h (2 Bft)
24.05.2017 07:00 13,6 C 73 % 1020,0 hPa 0,0 l/m NW 0,42 h 178 W/m 10,1 km/h (2 Bft)
24.05.2017 08:00 14,8 C 68 % 1020,4 hPa 0,0 l/m N-NW 1,00 h 458 W/m 12,0 km/h (2 Bft)
24.05.2017 09:00 15,9 C 60 % 1020,8 hPa 0,0 l/m N-NW 0,92 h 510 W/m 15,0 km/h (3 Bft)
24.05.2017 10:00 17,2 C 56 % 1020,7 hPa 0,0 l/m N-NW 0,83 h 611 W/m 12,6 km/h (3 Bft)
24.05.2017 11:00 18,4 C 55 % 1020,7 hPa 0,0 l/m N 1,00 h 827 W/m 13,7 km/h (3 Bft)
24.05.2017 12:00 19,1 C 52 % 1020,3 hPa 0,0 l/m W 0,92 h 788 W/m 11,7 km/h (2 Bft)
24.05.2017 13:00 20,2 C 47 % 1020,0 hPa 0,0 l/m N-NW 0,92 h 776 W/m 11,7 km/h (2 Bft)
24.05.2017 14:00 20,7 C 47 % 1019,6 hPa 0,0 l/m N-NW 1,00 h 710 W/m 11,4 km/h (2 Bft)
24.05.2017 15:00 21,1 C 47 % 1019,3 hPa 0,0 l/m N-NW 0,92 h 591 W/m 13,7 km/h (3 Bft)
24.05.2017 16:00 21,0 C 50 % 1019,1 hPa 0,0 l/m N 0,75 h 421 W/m 12,9 km/h (3 Bft)
24.05.2017 17:00 20,3 C 52 % 1019,0 hPa 0,0 l/m N-NO 0,17 h 265 W/m 15,8 km/h (3 Bft)
24.05.2017 18:00 19,8 C 55 % 1018,9 hPa 0,0 l/m NO 0,08 h 165 W/m 12,8 km/h (3 Bft)
24.05.2017 19:00 18,7 C 59 % 1019,2 hPa 0,0 l/m N-NO 0,00 h 65 W/m 13,4 km/h (3 Bft)
24.05.2017 20:00 17,8 C 63 % 1019,2 hPa 0,0 l/m N-NO 0,00 h 17 W/m 8,6 km/h (2 Bft)
24.05.2017 21:00 16,9 C 68 % 1019,5 hPa 0,0 l/m N 0,00 h 0 W/m 0,7 km/h (0 Bft)
24.05.2017 22:00 16,0 C 74 % 1019,9 hPa 0,0 l/m N 0,00 h 0 W/m 0,0 km/h (0 Bft)
24.05.2017 23:00 15,6 C 77 % 1019,9 hPa 0,0 l/m N-NO 0,00 h 0 W/m 2,0 km/h (1 Bft)
25.05.2017 00:00 14,3 C 87 % 1020,0 hPa 0,2 l/m N 0,00 h 0 W/m 1,2 km/h (1 Bft)
25.05.2017 01:00 13,3 C 93 % 1019,7 hPa 0,0 l/m N 0,00 h 0 W/m 0,0 km/h (0 Bft)
25.05.2017 02:00 12,8 C 95 % 1019,4 hPa 0,0 l/m N 0,00 h 0 W/m 0,0 km/h (0 Bft)
25.05.2017 03:00 12,7 C 95 % 1019,2 hPa 0,0 l/m N 0,00 h 0 W/m 0,0 km/h (0 Bft)
25.05.2017 04:00 12,0 C 97 % 1019,2 hPa 0,0 l/m N 0,00 h 0 W/m 0,0 km/h (0 Bft)
25.05.2017 05:00 12,1 C 97 % 1019,1 hPa 0,0 l/m N 0,00 h 10 W/m 0,0 km/h (0 Bft)
25.05.2017 06:00 12,2 C 97 % 1019,1 hPa 0,0 l/m N 0,00 h 49 W/m 0,0 km/h (0 Bft)
25.05.2017 07:00 13,1 C 95 % 1019,1 hPa 0,0 l/m N 0,75 h 190 W/m 1,9 km/h (1 Bft)
25.05.2017 08:00 14,8 C 89 % 1019,2 hPa 0,0 l/m N-NO 0,58 h 312 W/m 5,2 km/h (1 Bft)
25.05.2017 09:00 16,3 C 80 % 1019,4 hPa 0,0 l/m O-NO 0,83 h 505 W/m 7,1 km/h (2 Bft)
25.05.2017 10:00 17,4 C 67 % 1019,4 hPa 0,0 l/m O 0,58 h 539 W/m 7,5 km/h (2 Bft)
25.05.2017 11:00 18,2 C 62 % 1019,3 hPa 0,0 l/m O 0,58 h 656 W/m 8,1 km/h (2 Bft)
25.05.2017 12:00 19,2 C 57 % 1019,1 hPa 0,0 l/m N-NO 0,83 h 851 W/m 10,1 km/h (2 Bft)
25.05.2017 13:00 20,5 C 51 % 1018,8 hPa 0,0 l/m O-NO 0,75 h 836 W/m 11,3 km/h (2 Bft)
25.05.2017 14:00 20,7 C 51 % 1018,4 hPa 0,0 l/m NO 0,75 h 801 W/m 14,5 km/h (3 Bft)
25.05.2017 15:00 21,4 C 47 % 1018,1 hPa 0,0 l/m NO 0,83 h 783 W/m 14,1 km/h (3 Bft)
25.05.2017 16:00 21,0 C 48 % 1017,9 hPa 0,0 l/m O-NO 0,67 h 629 W/m 14,4 km/h (3 Bft)
25.05.2017 17:00 21,4 C 47 % 1017,8 hPa 0,0 l/m O-NO 1,00 h 539 W/m 15,0 km/h (3 Bft)
25.05.2017 18:00 21,0 C 47 % 1017,6 hPa 0,0 l/m O-NO 1,00 h 331 W/m 15,6 km/h (3 Bft)
25.05.2017 19:00 19,7 C 50 % 1017,7 hPa 0,0 l/m NO 0,83 h 152 W/m 14,1 km/h (3 Bft)
25.05.2017 20:00 18,2 C 54 % 1017,8 hPa 0,0 l/m NO 0,08 h 28 W/m 8,6 km/h (2 Bft)
25.05.2017 21:00 16,2 C 63 % 1018,2 hPa 0,0 l/m N 0,00 h 6 W/m 1,3 km/h (1 Bft)
25.05.2017 22:00 13,7 C 75 % 1018,4 hPa 0,0 l/m N 0,00 h 0 W/m 0,0 km/h (0 Bft)
25.05.2017 23:00 12,4 C 80 % 1018,5 hPa 0,0 l/m N 0,00 h 0 W/m 0,3 km/h (0 Bft)
26.05.2017 00:00 11,5 C 84 % 1018,5 hPa 0,0 l/m N 0,00 h 0 W/m 0,0 km/h (0 Bft)
26.05.2017 01:00 10,8 C 85 % 1018,2 hPa 0,0 l/m N 0,00 h 0 W/m 0,1 km/h (0 Bft)
26.05.2017 02:00 10,3 C 88 % 1017,8 hPa 0,0 l/m N 0,00 h 0 W/m 0,0 km/h (0 Bft)
26.05.2017 03:00 9,8 C 90 % 1017,7 hPa 0,0 l/m N 0,00 h 0 W/m 0,5 km/h (0 Bft)
26.05.2017 04:00 9,5 C 90 % 1017,7 hPa 0,0 l/m N 0,00 h 0 W/m 0,5 km/h (0 Bft)
26.05.2017 05:00 9,2 C 90 % 1017,8 hPa 0,0 l/m NO 0,25 h 12 W/m 1,6 km/h (1 Bft)
26.05.2017 06:00 9,7 C 90 % 1017,8 hPa 0,0 l/m NO 0,83 h 84 W/m 7,6 km/h (2 Bft)
26.05.2017 07:00 12,1 C 84 % 1017,9 hPa 0,0 l/m NO 1,00 h 275 W/m 7,3 km/h (2 Bft)
26.05.2017 08:00 15,1 C 72 % 1018,1 hPa 0,0 l/m NO 1,00 h 452 W/m 11,3 km/h (2 Bft)
26.05.2017 09:00 17,6 C 61 % 1018,2 hPa 0,0 l/m O-NO 0,92 h 519 W/m 19,0 km/h (3 Bft)
26.05.2017 10:00 19,1 C 54 % 1017,9 hPa 0,0 l/m O-SO 0,83 h 612 W/m 22,5 km/h (4 Bft)
26.05.2017 11:00 20,4 C 50 % 1018,0 hPa 0,0 l/m O 1,00 h 833 W/m 21,7 km/h (4 Bft)
26.05.2017 12:00 21,8 C 46 % 1017,8 hPa 0,0 l/m O 1,00 h 887 W/m 20,6 km/h (4 Bft)
26.05.2017 13:00 23,0 C 41 % 1017,5 hPa 0,0 l/m O 1,00 h 896 W/m 21,2 km/h (4 Bft)
26.05.2017 14:00 24,1 C 39 % 1016,7 hPa 0,0 l/m O-SO 1,00 h 854 W/m 23,2 km/h (4 Bft)
26.05.2017 15:00 24,6 C 38 % 1016,1 hPa 0,0 l/m O-NO 1,00 h 769 W/m 22,1 km/h (4 Bft)
26.05.2017 16:00 24,9 C 39 % 1015,7 hPa 0,0 l/m O 1,00 h 643 W/m 19,2 km/h (3 Bft)
26.05.2017 17:00 24,7 C 42 % 1015,5 hPa 0,0 l/m O 1,00 h 492 W/m 21,3 km/h (4 Bft)
26.05.2017 18:00 24,2 C 44 % 1015,2 hPa 0,0 l/m O 1,00 h 326 W/m 18,6 km/h (3 Bft)
26.05.2017 19:00 23,0 C 48 % 1015,4 hPa 0,0 l/m O 0,67 h 143 W/m 14,4 km/h (3 Bft)
26.05.2017 20:00 21,1 C 53 % 1015,5 hPa 0,0 l/m O-NO 0,00 h 25 W/m 8,4 km/h (2 Bft)
26.05.2017 21:00 17,9 C 68 % 1016,0 hPa 0,0 l/m N 0,00 h 6 W/m 0,0 km/h (0 Bft)
26.05.2017 22:00 15,8 C 75 % 1016,5 hPa 0,0 l/m N 0,00 h 0 W/m 0,0 km/h (0 Bft)
26.05.2017 23:00 14,9 C 77 % 1016,6 hPa 0,0 l/m N 0,00 h 0 W/m 1,3 km/h (1 Bft)
27.05.2017 00:00 13,7 C 81 % 1016,9 hPa 0,0 l/m N 0,00 h 0 W/m 0,0 km/h (0 Bft)
27.05.2017 01:00 13,1 C 82 % 1016,7 hPa 0,0 l/m N 0,00 h 0 W/m 0,7 km/h (0 Bft)
27.05.2017 02:00 12,5 C 84 % 1016,4 hPa 0,0 l/m N 0,00 h 0 W/m 1,2 km/h (1 Bft)
27.05.2017 03:00 12,0 C 85 % 1016,3 hPa 0,0 l/m N 0,00 h 0 W/m 0,5 km/h (0 Bft)
27.05.2017 04:00 11,4 C 86 % 1016,2 hPa 0,0 l/m O-NO 0,00 h 0 W/m 1,3 km/h (1 Bft)
27.05.2017 05:00 11,1 C 87 % 1016,4 hPa 0,0 l/m O-NO 0,25 h 14 W/m 4,1 km/h (1 Bft)
27.05.2017 06:00 11,5 C 86 % 1016,9 hPa 0,0 l/m O-NO 0,92 h 95 W/m 2,0 km/h (1 Bft)
27.05.2017 07:00 13,9 C 79 % 1017,2 hPa 0,0 l/m O-NO 1,00 h 289 W/m 1,9 km/h (1 Bft)
27.05.2017 08:00 16,7 C 70 % 1017,4 hPa 0,0 l/m O-NO 1,00 h 460 W/m 7,8 km/h (2 Bft)
27.05.2017 09:00 19,4 C 63 % 1017,4 hPa 0,0 l/m O 0,92 h 543 W/m 5,2 km/h (1 Bft)
27.05.2017 10:00 21,2 C 59 % 1017,3 hPa 0,0 l/m S-SW 0,92 h 677 W/m 4,7 km/h (1 Bft)
27.05.2017 11:00 23,2 C 53 % 1017,1 hPa 0,0 l/m O 1,00 h 838 W/m 7,5 km/h (2 Bft)
27.05.2017 12:00 25,3 C 46 % 1017,0 hPa 0,0 l/m O-SO 1,00 h 891 W/m 10,1 km/h (2 Bft)
27.05.2017 13:00 26,5 C 43 % 1016,5 hPa 0,0 l/m O-SO 1,00 h 897 W/m 12,1 km/h (2 Bft)
27.05.2017 14:00 27,4 C 40 % 1016,0 hPa 0,0 l/m O-NO 1,00 h 856 W/m 12,2 km/h (2 Bft)
27.05.2017 15:00 28,2 C 37 % 1015,7 hPa 0,0 l/m O-SO 1,00 h 772 W/m 12,4 km/h (3 Bft)
27.05.2017 16:00 28,6 C 36 % 1015,4 hPa 0,0 l/m O-SO 1,00 h 651 W/m 10,3 km/h (2 Bft)
27.05.2017 17:00 28,3 C 35 % 1015,2 hPa 0,0 l/m O-SO 1,00 h 497 W/m 10,5 km/h (2 Bft)
27.05.2017 18:00 28,0 C 34 % 1015,2 hPa 0,0 l/m O 1,00 h 329 W/m 10,1 km/h (2 Bft)
27.05.2017 19:00 26,7 C 37 % 1015,2 hPa 0,0 l/m O 0,67 h 144 W/m 10,0 km/h (2 Bft)
27.05.2017 20:00 24,5 C 44 % 1015,5 hPa 0,0 l/m O-NO 0,08 h 25 W/m 5,8 km/h (1 Bft)
27.05.2017 21:00 20,1 C 61 % 1016,1 hPa 0,0 l/m N 0,00 h 6 W/m 0,0 km/h (0 Bft)
27.05.2017 22:00 17,9 C 70 % 1016,7 hPa 0,0 l/m N 0,00 h 0 W/m 0,0 km/h (0 Bft)
27.05.2017 23:00 17,0 C 71 % 1016,8 hPa 0,0 l/m N 0,00 h 0 W/m 0,8 km/h (0 Bft)
28.05.2017 00:00 16,2 C 73 % 1017,0 hPa 0,0 l/m N 0,00 h 0 W/m 0,7 km/h (0 Bft)
28.05.2017 01:00 15,7 C 76 % 1017,1 hPa 0,0 l/m O-NO 0,00 h 0 W/m 0,0 km/h (0 Bft)
28.05.2017 02:00 14,9 C 79 % 1017,1 hPa 0,0 l/m O-NO 0,00 h 0 W/m 1,5 km/h (1 Bft)
28.05.2017 03:00 13,9 C 83 % 1016,9 hPa 0,0 l/m N 0,00 h 0 W/m 0,0 km/h (0 Bft)
28.05.2017 04:00 12,9 C 87 % 1016,8 hPa 0,0 l/m N 0,00 h 0 W/m 0,0 km/h (0 Bft)
28.05.2017 05:00 12,3 C 90 % 1016,8 hPa 0,0 l/m N 0,25 h 15 W/m 0,0 km/h (0 Bft)
28.05.2017 06:00 12,8 C 90 % 1017,0 hPa 0,0 l/m N 0,92 h 90 W/m 0,0 km/h (0 Bft)
28.05.2017 07:00 15,6 C 81 % 1017,1 hPa 0,0 l/m O-NO 1,00 h 275 W/m 3,1 km/h (1 Bft)
28.05.2017 08:00 18,9 C 71 % 1017,1 hPa 0,0 l/m O-NO 1,00 h 447 W/m 1,3 km/h (1 Bft)
28.05.2017 09:00 21,0 C 65 % 1017,0 hPa 0,0 l/m O 0,83 h 484 W/m 5,1 km/h (1 Bft)
28.05.2017 10:00 23,2 C 60 % 1016,8 hPa 0,0 l/m O 0,92 h 669 W/m 5,5 km/h (1 Bft)
28.05.2017 11:00 25,2 C 54 % 1016,5 hPa 0,0 l/m O-SO 1,00 h 826 W/m 6,0 km/h (2 Bft)
28.05.2017 12:00 27,1 C 43 % 1016,5 hPa 0,0 l/m S-SW 1,00 h 884 W/m 7,8 km/h (2 Bft)
28.05.2017 13:00 29,0 C 37 % 1015,9 hPa 0,0 l/m S-SW 1,00 h 893 W/m 9,4 km/h (2 Bft)
28.05.2017 14:00 29,9 C 35 % 1015,5 hPa 0,0 l/m S-SW 1,00 h 821 W/m 7,8 km/h (2 Bft)
28.05.2017 15:00 30,1 C 33 % 1015,1 hPa 0,0 l/m NO 1,00 h 747 W/m 9,3 km/h (2 Bft)
28.05.2017 16:00 30,3 C 32 % 1014,9 hPa 0,0 l/m O-NO 1,00 h 623 W/m 7,2 km/h (2 Bft)
28.05.2017 17:00 30,2 C 32 % 1014,5 hPa 0,0 l/m O 1,00 h 453 W/m 7,4 km/h (2 Bft)
28.05.2017 18:00 29,1 C 38 % 1014,2 hPa 0,0 l/m S-SO 1,00 h 308 W/m 5,7 km/h (1 Bft)
28.05.2017 19:00 27,3 C 48 % 1014,2 hPa 0,0 l/m N 0,42 h 131 W/m 0,7 km/h (0 Bft)
28.05.2017 20:00 24,3 C 60 % 1014,2 hPa 0,0 l/m S-SO 0,00 h 27 W/m 1,9 km/h (1 Bft)
28.05.2017 21:00 22,3 C 66 % 1014,4 hPa 0,0 l/m S-SO 0,00 h 5 W/m 2,4 km/h (1 Bft)
28.05.2017 22:00 20,5 C 74 % 1014,6 hPa 0,0 l/m N 0,00 h 0 W/m 0,0 km/h (0 Bft)
28.05.2017 23:00 19,1 C 78 % 1014,5 hPa 0,0 l/m N 0,00 h 0 W/m 0,0 km/h (0 Bft)
Min-Datum _ 22.05.17 28.05.17 22.05.17 - - - - 22.05.17
_ Min-Zeit 05:25 16:10 19:25 - - - - 00:20
Minimum _ 7,8 C 30 % 1013,2 hPa - - - - 0,0 km/h (0 Bft)
Max-Datum _ 28.05.17 25.05.17 24.05.17 25.05.17 - 22.05.17 22.05.17 23.05.17
_ Max-Zeit 17:15 06:55 09:45 00:15 - 14:50 12:45 16:45
Maximum _ 30,8 C 98 % 1020,9 hPa 0,2 l/m - 0,17 h 1127 W/m 32,2 km/h
W-NW (5 Bft)
Durchschnitt _ 18,1 C 66 % 1017,0 hPa #0,2 l/m O-NO #80:48 h 436 W/m 7,1 km/h (2 Bft)